Time;durP1;ratioP1;P1;durP2;ratioP2;P2;SDS_P1;SDS_P2;PMS_P1;PMS_P2;Temp;Humidity;BMP_temperature;BMP_pressure;BME280_temperature;BME280_humidity;BME280_pressure;Samples;Min_cycle;Max_cycle;Signal;HPM_P1;HPM_P2
2021/07/20 00:00:23;;;;;;;;;;;;;;;15.55;70.91;102121.09;5051125;28;20723;-52
2021/07/20 00:02:52;;;;;;;;;;;;;;;15.54;70.57;102124.72;5051213;28;19966;-52
2021/07/20 00:05:23;;;;;;;;;;;;;;;15.58;70.02;102125.34;5046195;28;19925;-52
2021/07/20 00:07:51;;;;;;;;;;;;;;;15.51;70.55;102130.19;5029592;28;19929;-51
2021/07/20 00:10:22;;;;;;;;;;;;;;;15.49;70.70;102131.28;5049165;28;19921;-52
2021/07/20 00:12:49;;;;;;;;;;;;;;;15.55;70.20;102129.03;5047498;28;19932;-49
2021/07/20 00:15:15;;;;;;;;;;;;;;;15.51;70.28;102129.38;5047993;28;19921;-50
2021/07/20 00:17:43;;;;;;;;;;;;;;;15.45;70.81;102135.91;5051445;28;19924;-49
2021/07/20 00:20:11;;;;;;;;;;;;;;;15.47;70.64;102127.88;5065200;28;19920;-51
2021/07/20 00:22:37;;;;;;;;;;;;;;;15.47;70.25;102130.50;5051389;28;19928;-52
2021/07/20 00:25:05;;;;;;;;;;;;;;;15.33;71.05;102126.97;5049925;28;19928;-52
2021/07/20 00:27:32;;;;;;;;;;;;;;;15.36;70.58;102124.09;5050097;28;19971;-53
2021/07/20 00:29:59;;;;;;;;;;;;;;;15.35;70.95;102125.06;5046643;28;19925;-50
2021/07/20 00:32:25;;;;;;;;;;;;;;;15.36;70.73;102125.91;5047037;28;19931;-50
2021/07/20 00:34:52;;;;;;;;;;;;;;;15.29;71.01;102124.63;5048289;28;19924;-47
2021/07/20 00:37:18;;;;;;;;;;;;;;;15.19;71.77;102122.56;5055195;28;19963;-52
2021/07/20 00:39:45;;;;;;;;;;;;;;;15.27;71.15;102127.38;5068861;28;19924;-52
2021/07/20 00:42:12;;;;;;;;;;;;;;;15.26;71.12;102130.97;5051880;28;19924;-50
2021/07/20 00:44:38;;;;;;;;;;;;;;;15.31;71.55;102128.88;5049914;28;20268;-51
2021/07/20 00:47:05;;;;;;;;;;;;;;;15.17;71.80;102124.47;5053719;28;20284;-50
2021/07/20 00:49:32;;;;;;;;;;;;;;;15.16;72.09;102122.78;5052912;28;19927;-53
2021/07/20 00:51:59;;;;;;;;;;;;;;;15.18;72.30;102127.97;5053525;28;20007;-48
2021/07/20 00:54:26;;;;;;;;;;;;;;;15.21;71.83;102115.38;5054127;28;20437;-50
2021/07/20 00:56:52;;;;;;;;;;;;;;;15.24;72.20;102116.94;5052519;28;19955;-48
2021/07/20 00:59:19;;;;;;;;;;;;;;;15.19;72.38;102116.44;5051515;28;20394;-51
2021/07/20 01:01:46;;;;;;;;;;;;;;;15.22;72.55;102113.56;5052896;28;19929;-51
2021/07/20 01:04:13;;;;;;;;;;;;;;;15.18;72.68;102117.38;5052417;28;19928;-50
2021/07/20 01:06:39;;;;;;;;;;;;;;;15.13;72.60;102116.81;5053755;28;19929;-52
2021/07/20 01:09:06;;;;;;;;;;;;;;;15.13;72.47;102114.16;5063474;28;19920;-53
2021/07/20 01:11:33;;;;;;;;;;;;;;;15.06;72.69;102105.75;5072169;28;19978;-48
2021/07/20 01:14:01;;;;;;;;;;;;;;;15.09;72.62;102099.41;5038319;28;19947;-51
2021/07/20 01:16:28;;;;;;;;;;;;;;;15.06;72.65;102107.56;5053436;28;20002;-51
2021/07/20 01:18:55;;;;;;;;;;;;;;;15.11;72.46;102110.78;5036718;28;19978;-53
2021/07/20 01:21:22;;;;;;;;;;;;;;;15.01;73.06;102111.34;5054143;28;19925;-48
2021/07/20 01:23:51;;;;;;;;;;;;;;;14.95;73.31;102111.72;5049794;28;19921;-49
2021/07/20 01:26:18;;;;;;;;;;;;;;;14.91;73.38;102120.81;5058017;28;20314;-50
2021/07/20 01:28:44;;;;;;;;;;;;;;;14.96;73.39;102112.59;5054654;28;19920;-51
2021/07/20 01:31:12;;;;;;;;;;;;;;;14.92;73.13;102105.81;5052186;28;19970;-48
2021/07/20 01:33:40;;;;;;;;;;;;;;;14.90;73.30;102102.38;5052153;28;19921;-49
2021/07/20 01:36:07;;;;;;;;;;;;;;;14.93;73.20;102102.19;5051536;28;19925;-49
2021/07/20 01:38:34;;;;;;;;;;;;;;;14.95;73.32;102101.13;5051841;28;19927;-50
2021/07/20 01:41:05;;;;;;;;;;;;;;;14.91;73.13;102104.09;5052961;28;20291;-49
2021/07/20 01:43:33;;;;;;;;;;;;;;;14.90;73.37;102105.88;5053867;28;19920;-53
2021/07/20 01:45:59;;;;;;;;;;;;;;;14.78;73.74;102098.69;5053177;28;19924;-52
2021/07/20 01:48:27;;;;;;;;;;;;;;;14.77;73.90;102108.47;5052758;28;20330;-52
2021/07/20 01:50:54;;;;;;;;;;;;;;;14.73;74.21;102109.59;5054077;28;19967;-52
2021/07/20 01:53:21;;;;;;;;;;;;;;;14.67;74.20;102109.97;5072669;28;20050;-47
2021/07/20 01:55:48;;;;;;;;;;;;;;;14.66;74.33;102114.41;5040184;28;19924;-49
2021/07/20 01:58:14;;;;;;;;;;;;;;;14.62;74.50;102107.59;5053005;28;19921;-49
2021/07/20 02:00:42;;;;;;;;;;;;;;;14.63;74.30;102114.63;5068828;28;19928;-52
2021/07/20 02:08:29;;;;;;;;;;;;;;;14.77;74.09;102110.25;5062940;28;19951;-51
2021/07/20 02:11:11;;;;;;;;;;;;;;;14.69;74.18;102114.22;5052980;28;19921;-53
2021/07/20 02:13:43;;;;;;;;;;;;;;;14.75;74.11;102113.00;5069039;28;19928;-51
2021/07/20 02:16:12;;;;;;;;;;;;;;;14.66;74.55;102110.94;5070728;28;19927;-50
2021/07/20 02:18:40;;;;;;;;;;;;;;;14.63;74.57;102108.47;5052315;28;19921;-50
2021/07/20 02:21:07;;;;;;;;;;;;;;;14.56;75.24;102113.28;5053817;28;19921;-50
2021/07/20 02:23:34;;;;;;;;;;;;;;;14.54;75.06;102109.88;5050882;28;19924;-52
2021/07/20 02:26:01;;;;;;;;;;;;;;;14.52;74.97;102109.13;5051520;28;20079;-52
2021/07/20 02:28:27;;;;;;;;;;;;;;;14.49;75.06;102110.16;5051656;28;19932;-52
2021/07/20 02:30:54;;;;;;;;;;;;;;;14.43;75.18;102107.03;5052541;28;20383;-49
2021/07/20 02:33:21;;;;;;;;;;;;;;;14.31;75.50;102112.13;5066440;28;19927;-50
2021/07/20 02:35:50;;;;;;;;;;;;;;;14.21;75.64;102105.69;5045490;28;19963;-48
2021/07/20 02:38:17;;;;;;;;;;;;;;;14.32;75.19;102107.69;5051207;28;19920;-48
2021/07/20 02:40:44;;;;;;;;;;;;;;;14.31;75.08;102106.81;5052281;28;19925;-51
2021/07/20 02:43:10;;;;;;;;;;;;;;;14.35;74.76;102116.28;5059657;28;20331;-51
2021/07/20 02:45:37;;;;;;;;;;;;;;;14.33;74.89;102104.94;5054292;28;19924;-53
2021/07/20 02:48:04;;;;;;;;;;;;;;;14.34;74.76;102105.78;5030887;28;19951;-49
2021/07/20 02:50:33;;;;;;;;;;;;;;;14.33;74.75;102099.66;5043479;28;19978;-53
2021/07/20 02:52:59;;;;;;;;;;;;;;;14.23;75.31;102102.94;5044055;28;19921;-48
2021/07/20 02:55:26;;;;;;;;;;;;;;;14.28;75.18;102106.19;5040778;28;19951;-53
2021/07/20 02:57:53;;;;;;;;;;;;;;;14.26;75.25;102103.63;5063430;28;19920;-51
2021/07/20 03:00:20;;;;;;;;;;;;;;;14.20;75.16;102102.19;5047444;28;20378;-49
2021/07/20 03:02:47;;;;;;;;;;;;;;;14.27;75.18;102099.19;5052030;28;19928;-48
2021/07/20 03:05:14;;;;;;;;;;;;;;;14.23;75.38;102106.44;5050295;28;19920;-51
2021/07/20 03:08:08;;;;;;;;;;;;;;;14.19;75.33;102105.78;5060633;28;20386;-48
2021/07/20 03:10:35;;;;;;;;;;;;;;;14.22;75.47;102103.88;5039177;28;19921;-48
2021/07/20 03:13:03;;;;;;;;;;;;;;;14.29;75.26;102110.50;5064049;28;20027;-48
2021/07/20 03:15:30;;;;;;;;;;;;;;;14.26;75.23;102106.28;5059768;28;20299;-48
2021/07/20 03:17:57;;;;;;;;;;;;;;;14.20;75.42;102110.13;5048604;28;20371;-50
2021/07/20 03:20:24;;;;;;;;;;;;;;;14.28;75.24;102108.81;5034445;28;19924;-51
2021/07/20 03:22:51;;;;;;;;;;;;;;;14.26;75.07;102108.03;5050824;28;19931;-50
2021/07/20 03:25:17;;;;;;;;;;;;;;;14.22;75.13;102111.81;5051998;28;19966;-49
2021/07/20 03:27:44;;;;;;;;;;;;;;;14.23;75.02;102114.38;5050800;28;19920;-50
2021/07/20 03:30:11;;;;;;;;;;;;;;;14.20;74.90;102119.84;5049605;28;20299;-49
2021/07/20 03:32:43;;;;;;;;;;;;;;;14.12;75.29;102117.66;5047176;28;19943;-51
2021/07/20 03:35:11;;;;;;;;;;;;;;;14.19;75.00;102113.72;5050822;28;19921;-51
2021/07/20 03:37:38;;;;;;;;;;;;;;;14.15;75.03;102111.34;5050735;28;19925;-49
2021/07/20 03:40:05;;;;;;;;;;;;;;;14.08;75.47;102108.22;5050707;28;20375;-51
2021/07/20 03:42:31;;;;;;;;;;;;;;;14.03;76.04;102112.94;5048669;28;20010;-52
2021/07/20 03:44:58;;;;;;;;;;;;;;;14.01;76.47;102114.81;5048998;28;20451;-50
2021/07/20 03:47:24;;;;;;;;;;;;;;;13.96;75.85;102114.25;5050544;28;19921;-48
2021/07/20 03:49:51;;;;;;;;;;;;;;;14.01;75.91;102122.75;5034145;28;19920;-49
2021/07/20 03:52:18;;;;;;;;;;;;;;;13.98;76.32;102115.00;5051701;28;19927;-51
2021/07/20 03:54:45;;;;;;;;;;;;;;;14.00;76.08;102119.28;5050513;28;19920;-47
2021/07/20 03:57:13;;;;;;;;;;;;;;;13.90;76.58;102115.47;5050491;28;19927;-47
2021/07/20 03:59:41;;;;;;;;;;;;;;;13.85;76.62;102112.22;5050598;28;19921;-50
2021/07/20 04:02:07;;;;;;;;;;;;;;;13.82;76.85;102120.34;5051712;28;20324;-47
2021/07/20 04:04:35;;;;;;;;;;;;;;;13.83;76.99;102125.53;5051585;28;19966;-47
2021/07/20 04:07:02;;;;;;;;;;;;;;;13.77;77.13;102123.28;5048637;28;19925;-50
2021/07/20 04:09:28;;;;;;;;;;;;;;;13.72;77.36;102117.41;5049526;28;19928;-50
2021/07/20 04:11:56;;;;;;;;;;;;;;;13.77;76.96;102115.34;5053662;28;19921;-51
2021/07/20 04:14:22;;;;;;;;;;;;;;;13.79;77.01;102123.19;5055559;28;19924;-49
2021/07/20 04:16:49;;;;;;;;;;;;;;;13.72;77.31;102119.19;5054191;28;19928;-49
2021/07/20 04:19:16;;;;;;;;;;;;;;;13.68;77.79;102123.81;5037748;28;19921;-50
2021/07/20 04:21:43;;;;;;;;;;;;;;;13.67;77.84;102122.97;5055462;28;19960;-51
2021/07/20 04:24:10;;;;;;;;;;;;;;;13.70;77.52;102116.63;5055489;28;19921;-45
2021/07/20 04:26:37;;;;;;;;;;;;;;;13.69;77.63;102123.72;5054493;28;19955;-46
2021/07/20 04:29:04;;;;;;;;;;;;;;;13.65;77.95;102121.34;5055219;28;19921;-53
2021/07/20 04:31:33;;;;;;;;;;;;;;;13.75;77.59;102117.22;5055215;28;19921;-51
2021/07/20 04:34:00;;;;;;;;;;;;;;;13.81;77.62;102122.16;5054070;28;20307;-50
2021/07/20 04:36:27;;;;;;;;;;;;;;;13.78;77.44;102119.66;5053965;28;19928;-48
2021/07/20 04:38:53;;;;;;;;;;;;;;;13.80;77.51;102116.97;5051325;28;19921;-50
2021/07/20 04:41:20;;;;;;;;;;;;;;;13.75;77.56;102119.00;5052115;28;19921;-52
2021/07/20 04:43:47;;;;;;;;;;;;;;;13.85;77.12;102117.50;5036510;28;19978;-51
2021/07/20 04:46:14;;;;;;;;;;;;;;;13.91;77.00;102118.97;5050962;28;19921;-51
2021/07/20 04:48:41;;;;;;;;;;;;;;;13.89;76.92;102126.97;5051809;28;20353;-49
2021/07/20 04:51:08;;;;;;;;;;;;;;;13.96;76.61;102122.16;5051573;28;19924;-49
2021/07/20 04:53:34;;;;;;;;;;;;;;;14.00;76.92;102124.56;5051393;28;19966;-51
2021/07/20 04:56:02;;;;;;;;;;;;;;;13.98;77.09;102123.78;5052580;28;20109;-49
2021/07/20 04:58:29;;;;;;;;;;;;;;;13.93;77.10;102130.28;5053430;28;19928;-52
2021/07/20 05:00:55;;;;;;;;;;;;;;;14.01;76.62;102133.34;5051977;28;20378;-52
2021/07/20 05:03:23;;;;;;;;;;;;;;;14.02;75.95;102127.94;5051652;28;19920;-52
2021/07/20 05:05:51;;;;;;;;;;;;;;;14.08;75.98;102136.47;5051878;28;19920;-46
2021/07/20 05:08:18;;;;;;;;;;;;;;;14.17;75.80;102135.94;5054343;28;19931;-51
2021/07/20 05:10:46;;;;;;;;;;;;;;;14.20;75.76;102136.56;5050372;28;19947;-51
2021/07/20 05:13:16;;;;;;;;;;;;;;;14.28;75.29;102124.69;5052588;28;20319;-52
2021/07/20 05:16:03;;;;;;;;;;;;;;;14.32;74.81;102129.69;5054558;28;19921;-50
2021/07/20 05:18:29;;;;;;;;;;;;;;;14.39;75.53;102139.94;5054409;28;20458;-49
2021/07/20 05:20:59;;;;;;;;;;;;;;;14.44;74.79;102132.53;5052006;28;19925;-49
2021/07/20 05:23:29;;;;;;;;;;;;;;;14.53;75.12;102143.44;5053227;28;20341;-49
2021/07/20 05:25:57;;;;;;;;;;;;;;;14.59;73.81;102142.19;5036334;28;20395;-50
2021/07/20 05:28:24;;;;;;;;;;;;;;;14.64;73.84;102134.88;5054025;28;19920;-52
2021/07/20 05:30:56;;;;;;;;;;;;;;;14.74;72.93;102136.91;5052895;28;20438;-51
2021/07/20 05:33:22;;;;;;;;;;;;;;;14.86;72.64;102134.38;5050117;28;20299;-51
2021/07/20 05:35:53;;;;;;;;;;;;;;;14.92;72.25;102135.78;5050228;28;19932;-50
2021/07/20 05:38:20;;;;;;;;;;;;;;;14.95;70.94;102132.09;5052580;28;19921;-50
2021/07/20 05:40:49;;;;;;;;;;;;;;;14.98;70.87;102135.41;5052120;28;20292;-52
2021/07/20 05:43:16;;;;;;;;;;;;;;;15.04;70.35;102140.28;5051074;28;20496;-47
2021/07/20 05:45:43;;;;;;;;;;;;;;;15.10;70.11;102140.84;5052018;28;20295;-51
2021/07/20 05:48:10;;;;;;;;;;;;;;;15.19;69.98;102129.66;5053780;28;19967;-48
2021/07/20 05:50:46;;;;;;;;;;;;;;;15.27;70.01;102132.69;5052614;28;19926;-52
2021/07/20 05:53:13;;;;;;;;;;;;;;;15.35;70.16;102138.31;5052814;28;19927;-51
2021/07/20 05:55:40;;;;;;;;;;;;;;;15.41;69.22;102144.19;5053836;28;19974;-49
2021/07/20 05:58:06;;;;;;;;;;;;;;;15.42;69.46;102141.44;5051024;28;19924;-46
2021/07/20 06:00:33;;;;;;;;;;;;;;;15.49;68.38;102141.88;5049918;28;19924;-51
2021/07/20 06:03:00;;;;;;;;;;;;;;;15.64;68.49;102140.03;5052553;28;19925;-52
2021/07/20 06:05:27;;;;;;;;;;;;;;;15.67;68.09;102145.97;5053693;28;19921;-50
2021/07/20 06:07:55;;;;;;;;;;;;;;;15.73;68.03;102147.34;5053311;28;20140;-52
2021/07/20 06:10:22;;;;;;;;;;;;;;;15.79;67.54;102146.94;5052352;28;19932;-48
2021/07/20 06:12:49;;;;;;;;;;;;;;;15.87;67.36;102149.13;5052239;28;19925;-52
2021/07/20 06:15:17;;;;;;;;;;;;;;;15.99;67.10;102150.09;5053256;28;20190;-49
2021/07/20 06:17:47;;;;;;;;;;;;;;;16.03;66.79;102149.78;5050958;28;19928;-51
2021/07/20 06:20:14;;;;;;;;;;;;;;;16.09;68.65;102145.88;5049435;28;19920;-52
2021/07/20 06:22:45;;;;;;;;;;;;;;;16.14;67.65;102151.72;5051988;28;20299;-48
2021/07/20 06:25:14;;;;;;;;;;;;;;;16.23;67.33;102144.94;5052010;28;19931;-50
2021/07/20 06:27:41;;;;;;;;;;;;;;;16.34;68.07;102152.16;5051784;28;19951;-50
2021/07/20 06:30:07;;;;;;;;;;;;;;;16.42;66.64;102155.13;5053230;28;19927;-50
2021/07/20 06:32:34;;;;;;;;;;;;;;;16.41;66.18;102150.75;5051628;28;20338;-53
2021/07/20 06:35:01;;;;;;;;;;;;;;;16.45;65.62;102157.56;5051730;28;20395;-53
2021/07/20 06:37:27;;;;;;;;;;;;;;;16.54;65.31;102153.44;5052724;28;19921;-52
2021/07/20 06:39:55;;;;;;;;;;;;;;;16.66;64.78;102154.34;5051535;28;19966;-51
2021/07/20 06:42:22;;;;;;;;;;;;;;;16.83;64.88;102155.84;5052608;28;20428;-53
2021/07/20 06:44:49;;;;;;;;;;;;;;;17.01;64.85;102159.00;5048623;28;20375;-53
2021/07/20 06:47:16;;;;;;;;;;;;;;;17.08;64.86;102160.25;5049354;28;20015;-54
2021/07/20 06:49:45;;;;;;;;;;;;;;;17.28;62.62;102166.78;5052755;28;20391;-53
2021/07/20 06:52:12;;;;;;;;;;;;;;;17.38;63.26;102167.84;5052662;28;19947;-53
2021/07/20 06:54:39;;;;;;;;;;;;;;;17.53;62.44;102157.88;5048976;28;19920;-54
2021/07/20 06:57:06;;;;;;;;;;;;;;;17.69;62.04;102162.03;5049482;28;19924;-51
2021/07/20 06:59:34;;;;;;;;;;;;;;;17.85;62.21;102164.41;5051343;28;20031;-52
2021/07/20 07:02:01;;;;;;;;;;;;;;;17.99;61.57;102171.38;5050797;28;20379;-51
2021/07/20 07:04:28;;;;;;;;;;;;;;;18.11;59.95;102158.97;5048490;28;19925;-51
2021/07/20 07:06:55;;;;;;;;;;;;;;;18.23;59.25;102168.66;5051322;28;19920;-54
2021/07/20 07:09:25;;;;;;;;;;;;;;;18.27;57.79;102169.25;5051109;28;19974;-51
2021/07/20 07:11:52;;;;;;;;;;;;;;;18.41;58.16;102164.56;5048093;28;20073;-54
2021/07/20 07:14:18;;;;;;;;;;;;;;;18.57;56.54;102169.53;5049336;28;19921;-52
2021/07/20 07:16:46;;;;;;;;;;;;;;;18.58;56.86;102168.59;5052195;28;19920;-54
2021/07/20 07:19:13;;;;;;;;;;;;;;;18.69;56.14;102174.88;5052088;28;19970;-50
2021/07/20 07:21:43;;;;;;;;;;;;;;;18.81;55.03;102170.38;5050917;28;19920;-54
2021/07/20 07:24:13;;;;;;;;;;;;;;;19.02;55.91;102176.72;5048246;28;19920;-53
2021/07/20 07:26:40;;;;;;;;;;;;;;;19.20;53.88;102178.88;5048195;28;19921;-54
2021/07/20 07:29:11;;;;;;;;;;;;;;;19.31;53.76;102181.50;5051928;28;20321;-53
2021/07/20 07:31:38;;;;;;;;;;;;;;;19.57;54.46;102179.34;5052131;28;20368;-52
2021/07/20 07:34:05;;;;;;;;;;;;;;;19.59;53.47;102185.44;5051989;28;19924;-54
2021/07/20 07:36:32;;;;;;;;;;;;;;;19.76;53.46;102181.34;5050746;28;20492;-53
2021/07/20 07:39:02;;;;;;;;;;;;;;;19.89;52.25;102180.34;5050576;28;19921;-54
2021/07/20 07:41:29;;;;;;;;;;;;;;;20.02;51.78;102186.34;5050646;28;19936;-53
2021/07/20 07:43:55;;;;;;;;;;;;;;;20.20;53.00;102188.44;5050024;28;19974;-52
2021/07/20 07:46:22;;;;;;;;;;;;;;;20.16;51.45;102181.66;5047217;28;19987;-51
2021/07/20 07:48:49;;;;;;;;;;;;;;;20.35;51.50;102170.25;5047010;28;19924;-52
2021/07/20 07:51:15;;;;;;;;;;;;;;;20.55;50.12;102182.72;5050454;28;19924;-53
2021/07/20 07:53:42;;;;;;;;;;;;;;;20.54;48.25;102170.34;5050556;28;20416;-53
2021/07/20 07:56:09;;;;;;;;;;;;;;;20.59;46.15;102176.13;5050543;28;19928;-53
2021/07/20 07:58:36;;;;;;;;;;;;;;;20.71;46.44;102173.41;5050388;28;19921;-54
2021/07/20 08:01:04;;;;;;;;;;;;;;;20.63;47.62;102174.06;5047169;28;20729;-54
2021/07/20 08:03:31;;;;;;;;;;;;;;;20.84;47.23;102160.66;5048594;28;19951;-55
2021/07/20 08:05:59;;;;;;;;;;;;;;;20.94;45.88;102168.69;5049750;28;19956;-52
2021/07/20 08:08:26;;;;;;;;;;;;;;;20.88;44.10;102169.25;5048814;28;19967;-54
2021/07/20 08:10:52;;;;;;;;;;;;;;;20.73;45.19;102166.94;5049880;28;19921;-52
2021/07/20 08:13:20;;;;;;;;;;;;;;;20.86;44.32;102166.72;5051756;28;20382;-53
2021/07/20 08:15:47;;;;;;;;;;;;;;;21.01;45.55;102171.66;5050233;28;20299;-51
2021/07/20 08:18:14;;;;;;;;;;;;;;;21.17;43.47;102176.50;5051308;28;19921;-54
2021/07/20 08:20:41;;;;;;;;;;;;;;;21.29;43.67;102175.41;5050460;28;19920;-52
2021/07/20 08:23:08;;;;;;;;;;;;;;;21.49;42.92;102176.28;5051355;28;19921;-54
2021/07/20 08:25:39;;;;;;;;;;;;;;;21.78;42.59;102178.13;5050277;28;19932;-54
2021/07/20 08:28:07;;;;;;;;;;;;;;;21.86;42.33;102178.28;5047928;28;19925;-55
2021/07/20 08:30:39;;;;;;;;;;;;;;;21.98;43.18;102180.78;5047732;28;19920;-52
2021/07/20 08:33:06;;;;;;;;;;;;;;;21.94;43.52;102174.88;5049302;28;19921;-54
2021/07/20 08:35:33;;;;;;;;;;;;;;;22.08;42.53;102178.94;5048185;28;19979;-50
2021/07/20 08:38:04;;;;;;;;;;;;;;;22.11;41.92;102176.84;5049618;28;20307;-54
2021/07/20 08:40:37;;;;;;;;;;;;;;;22.11;42.06;102184.88;5051316;28;19924;-54
2021/07/20 08:43:12;;;;;;;;;;;;;;;22.28;42.14;102177.09;5051567;28;20423;-53
2021/07/20 08:46:02;;;;;;;;;;;;;;;22.59;41.92;102180.41;5049674;28;19973;-53
2021/07/20 08:48:36;;;;;;;;;;;;;;;22.63;41.24;102178.25;5041817;28;19928;-54
2021/07/20 08:51:26;;;;;;;;;;;;;;;22.62;41.69;102179.25;5049064;28;19974;-53
2021/07/20 08:54:03;;;;;;;;;;;;;;;22.66;41.52;102180.66;5045889;28;19924;-54
2021/07/20 08:56:30;;;;;;;;;;;;;;;22.70;41.49;102184.72;5051826;28;19925;-53
2021/07/20 08:59:05;;;;;;;;;;;;;;;22.48;40.77;102177.88;5050353;28;20405;-52
2021/07/20 09:01:34;;;;;;;;;;;;;;;22.33;41.23;102180.16;5053633;28;19920;-53
2021/07/20 09:04:03;;;;;;;;;;;;;;;21.93;42.05;102178.53;5054664;28;20398;-53
2021/07/20 09:06:35;;;;;;;;;;;;;;;22.28;43.02;102182.44;5053556;28;19943;-54
2021/07/20 09:09:08;;;;;;;;;;;;;;;22.43;41.83;102185.53;5054493;28;20032;-52
2021/07/20 09:11:43;;;;;;;;;;;;;;;22.65;42.56;102195.03;5036870;28;19921;-53
2021/07/20 09:14:10;;;;;;;;;;;;;;;22.78;41.48;102192.00;5054519;28;19920;-52
2021/07/20 09:16:41;;;;;;;;;;;;;;;22.94;41.42;102183.34;5054432;28;20015;-51
2021/07/20 09:19:14;;;;;;;;;;;;;;;23.08;41.57;102193.56;5054211;28;19920;-51
2021/07/20 09:21:45;;;;;;;;;;;;;;;23.22;39.53;102196.75;5053237;28;20284;-52
2021/07/20 09:24:13;;;;;;;;;;;;;;;22.61;40.67;102188.28;5034123;28;19920;-52
2021/07/20 09:26:47;;;;;;;;;;;;;;;22.89;41.52;102189.16;5052322;28;19966;-51
2021/07/20 09:29:16;;;;;;;;;;;;;;;23.05;41.88;102193.84;5052664;28;20011;-53
2021/07/20 09:31:46;;;;;;;;;;;;;;;23.36;40.89;102198.94;5048229;28;20285;-54
2021/07/20 09:34:25;;;;;;;;;;;;;;;23.73;39.44;102195.25;5052719;28;20411;-54
2021/07/20 09:37:11;;;;;;;;;;;;;;;23.62;39.48;102193.63;5054260;28;19928;-52
2021/07/20 09:39:46;;;;;;;;;;;;;;;23.39;39.23;102198.63;5053990;28;19921;-53
2021/07/20 09:42:14;;;;;;;;;;;;;;;23.52;38.86;102192.03;5052661;28;20391;-52
2021/07/20 09:44:50;;;;;;;;;;;;;;;23.69;38.22;102196.56;5052697;28;19920;-52
2021/07/20 09:47:35;;;;;;;;;;;;;;;24.24;37.94;102191.97;5050379;28;19921;-52
2021/07/20 09:50:08;;;;;;;;;;;;;;;24.06;38.43;102190.16;5049308;28;19956;-53
2021/07/20 09:52:37;;;;;;;;;;;;;;;24.01;37.93;102192.50;5053769;28;19921;-52
2021/07/20 09:55:04;;;;;;;;;;;;;;;24.19;37.40;102187.09;5053658;28;19970;-51
2021/07/20 09:57:46;;;;;;;;;;;;;;;24.72;38.88;102182.53;5053639;28;19925;-51
2021/07/20 10:00:14;;;;;;;;;;;;;;;25.12;38.06;102180.16;5053453;28;19940;-51
2021/07/20 10:02:47;;;;;;;;;;;;;;;24.99;35.53;102175.22;5036301;28;19986;-53
2021/07/20 10:05:23;;;;;;;;;;;;;;;25.12;35.52;102178.28;5051542;28;19921;-53
2021/07/20 10:07:52;;;;;;;;;;;;;;;25.30;36.44;102180.00;5049810;28;19921;-53
2021/07/20 10:10:34;;;;;;;;;;;;;;;25.30;35.91;102182.69;5051457;28;19964;-53
2021/07/20 10:13:06;;;;;;;;;;;;;;;25.35;37.23;102179.56;5053558;28;19950;-52
2021/07/20 10:15:50;;;;;;;;;;;;;;;25.03;36.08;102181.13;5051413;28;19925;-54
2021/07/20 10:18:22;;;;;;;;;;;;;;;25.21;35.82;102183.69;5048635;28;20387;-52
2021/07/20 10:20:51;;;;;;;;;;;;;;;25.28;35.57;102185.56;5034591;28;19927;-52
2021/07/20 10:23:24;;;;;;;;;;;;;;;25.33;35.43;102177.00;5051637;28;19920;-52
2021/07/20 10:26:10;;;;;;;;;;;;;;;25.14;34.99;102178.97;5049893;28;19928;-52
2021/07/20 10:28:43;;;;;;;;;;;;;;;25.50;35.83;102179.72;5050284;28;20391;-53
2021/07/20 10:31:11;;;;;;;;;;;;;;;25.32;35.28;102178.00;5053034;28;19921;-53
2021/07/20 10:33:45;;;;;;;;;;;;;;;25.21;35.43;102173.78;5052858;28;19960;-52
2021/07/20 10:36:23;;;;;;;;;;;;;;;25.20;34.64;102165.88;5049198;28;19921;-53
2021/07/20 10:38:51;;;;;;;;;;;;;;;25.38;37.35;102180.06;5049579;28;20441;-53
2021/07/20 10:41:21;;;;;;;;;;;;;;;25.50;34.78;102172.50;5052948;28;20383;-53
2021/07/20 10:43:54;;;;;;;;;;;;;;;25.57;34.95;102172.69;5052393;28;19943;-53
2021/07/20 10:46:20;;;;;;;;;;;;;;;25.71;34.97;102179.25;5052647;28;19936;-54
2021/07/20 10:48:48;;;;;;;;;;;;;;;25.63;34.30;102172.00;5050476;28;19978;-53
2021/07/20 10:51:15;;;;;;;;;;;;;;;25.94;35.34;102172.16;5048828;28;19920;-52
2021/07/20 10:53:48;;;;;;;;;;;;;;;26.08;34.74;102165.28;5050033;28;19920;-54
2021/07/20 10:56:36;;;;;;;;;;;;;;;26.35;33.54;102165.88;5051318;28;20346;-53
2021/07/20 10:59:12;;;;;;;;;;;;;;;25.71;34.98;102174.69;5052371;28;19924;-53
2021/07/20 11:01:54;;;;;;;;;;;;;;;25.51;35.07;102179.59;5052680;28;19982;-52
2021/07/20 11:04:39;;;;;;;;;;;;;;;25.98;34.76;102164.59;5051279;28;19935;-52
2021/07/20 11:07:06;;;;;;;;;;;;;;;26.07;33.91;102168.97;5051359;28;20290;-53
2021/07/20 11:09:33;;;;;;;;;;;;;;;26.01;34.89;102158.00;5051022;28;20457;-51
2021/07/20 11:12:02;;;;;;;;;;;;;;;26.06;34.85;102164.59;5051100;28;19921;-52
2021/07/20 11:14:29;;;;;;;;;;;;;;;26.55;34.25;102160.94;5051204;28;19954;-53
2021/07/20 11:16:57;;;;;;;;;;;;;;;26.26;34.55;102153.44;5047027;28;19924;-53
2021/07/20 11:19:24;;;;;;;;;;;;;;;26.56;34.85;102153.66;5046661;28;20026;-52
2021/07/20 11:21:50;;;;;;;;;;;;;;;26.85;32.28;102149.56;5050729;28;19978;-53
2021/07/20 11:24:18;;;;;;;;;;;;;;;26.57;34.57;102145.41;5051053;28;19921;-51
2021/07/20 11:26:45;;;;;;;;;;;;;;;26.78;34.39;102152.94;5034520;28;19921;-53
2021/07/20 11:29:11;;;;;;;;;;;;;;;26.68;35.19;102149.56;5050616;28;19925;-53
2021/07/20 11:31:38;;;;;;;;;;;;;;;27.12;33.97;102157.13;5050934;28;19928;-51
2021/07/20 11:34:07;;;;;;;;;;;;;;;27.04;34.13;102153.63;5051796;28;20024;-54
2021/07/20 11:36:36;;;;;;;;;;;;;;;27.07;32.07;102156.00;5051297;28;19924;-52
2021/07/20 11:39:03;;;;;;;;;;;;;;;27.29;32.26;102157.03;5048558;28;20380;-50
2021/07/20 11:41:49;;;;;;;;;;;;;;;27.38;32.59;102160.53;5050672;28;20346;-53
2021/07/20 11:44:17;;;;;;;;;;;;;;;27.36;31.90;102154.44;5051900;28;20299;-52
2021/07/20 11:46:53;;;;;;;;;;;;;;;28.09;32.80;102158.41;5050174;28;20031;-54
2021/07/20 11:49:37;;;;;;;;;;;;;;;28.13;31.72;102162.44;5049138;28;20020;-52
2021/07/20 11:52:05;;;;;;;;;;;;;;;28.28;30.51;102158.91;5048723;28;19921;-54
2021/07/20 11:54:38;;;;;;;;;;;;;;;28.15;31.97;102164.94;5050618;28;19927;-54
2021/07/20 11:57:07;;;;;;;;;;;;;;;28.11;31.43;102160.94;5051805;28;19971;-54
2021/07/20 11:59:53;;;;;;;;;;;;;;;27.92;31.15;102159.56;5047404;28;19947;-52
2021/07/20 12:02:38;;;;;;;;;;;;;;;27.95;31.94;102145.69;5048272;28;20323;-54
2021/07/20 12:05:11;;;;;;;;;;;;;;;28.54;31.28;102150.31;5051618;28;19924;-54
2021/07/20 12:08:07;;;;;;;;;;;;;;;27.56;33.33;102160.25;5051590;28;20372;-52
2021/07/20 12:10:51;;;;;;;;;;;;;;;27.77;31.83;102151.44;5042600;28;19924;-53
2021/07/20 12:13:19;;;;;;;;;;;;;;;28.19;33.20;102146.50;5050486;28;20410;-53
2021/07/20 12:15:46;;;;;;;;;;;;;;;28.53;31.20;102145.09;5050511;28;20280;-52
2021/07/20 12:18:13;;;;;;;;;;;;;;;28.22;30.22;102146.13;5051926;28;20019;-52
2021/07/20 12:20:43;;;;;;;;;;;;;;;28.34;30.70;102133.81;5051079;28;19924;-54
2021/07/20 12:23:10;;;;;;;;;;;;;;;28.14;30.72;102138.94;5048489;28;20383;-50
2021/07/20 12:25:37;;;;;;;;;;;;;;;27.53;32.64;102137.13;5048844;28;20190;-53
2021/07/20 12:28:05;;;;;;;;;;;;;;;27.67;31.62;102139.00;5051694;28;20306;-54
2021/07/20 12:30:32;;;;;;;;;;;;;;;28.18;31.76;102142.94;5052835;28;20260;-56
2021/07/20 12:33:01;;;;;;;;;;;;;;;28.65;31.67;102146.31;5032651;28;19928;-56
2021/07/20 12:35:29;;;;;;;;;;;;;;;29.20;29.67;102137.75;5053487;28;19975;-56
2021/07/20 12:38:08;;;;;;;;;;;;;;;28.54;29.88;102130.50;5055177;28;19921;-56
2021/07/20 12:40:37;;;;;;;;;;;;;;;28.54;30.00;102130.50;5054982;28;19935;-56
2021/07/20 12:43:08;;;;;;;;;;;;;;;29.27;29.07;102126.00;5054882;28;20310;-55
2021/07/20 12:45:35;;;;;;;;;;;;;;;28.55;29.90;102124.09;5042128;28;19971;-55
2021/07/20 12:48:03;;;;;;;;;;;;;;;28.46;31.60;102132.31;5038817;28;19928;-55
2021/07/20 12:50:29;;;;;;;;;;;;;;;28.06;31.25;102136.31;5035010;28;20000;-55